Perch River, New York
Current Conditions -  °F | °C
As of 7:56 PM on Thursday 18 Dec 2014 (Local Time) from KART Reporting Station
Overcast Overcast  
Wind Chill: 22°   Ceiling: 1800
Heat Index: 30°   Visibility: 10mi
Dew Point: 22°   Wind: 8mph
Humidity: 72%   Direction: 310°NW
Pressure: 30.03"   Gusts: NA
Location:  44.0116°N, 76.0789°W
Report Text: KART 190056Z AUTO 31007KT 10SM SCT013 OVC018 M01/M06 A3003 RMK AO2 SLP174 T10111056
Loading
Personal Weather Stations






























Interactive Weather Map New forecast layout! Learn more

10-Day Weather Forecast

Advertisements
Track Severe Weather on mobile